ADDS METAR Data INFO
IDs: Format: Raw Decoded Include TAF

Data at: 1157 UTC 23 Jun 2018

KBTL 231153Z 36003KT 2SM BR OVC002 18/17 A2972 RMK AO2 SLP060 70008 T01780172 10178 20172 51007
KBTL 231151Z 36004KT 1 3/4SM R23R/6000VP6000FT BR OVC002 18/17 A2972 RMK AO2
KBTL 231053Z 02004KT 3/4SM R23R/4500V5500FT BR OVC002 18/17 A2972 RMK AO2 SLP059 T01780172
KBTL 231044Z 01003KT 3/4SM R23R/4500V6000FT BR OVC002 18/17 A2972 RMK AO2 T01780172
KBTL 230953Z 05004KT 1 1/2SM R23R/6000VP6000FT BR OVC002 17/17 A2970 RMK AO2 SLP053 T01720167
KBTL 230901Z AUTO 02004KT 1 1/2SM BR OVC002 17/17 A2969 RMK AO2 T01720167
KBTL 230853Z AUTO 03005KT 2SM BR OVC002 17/17 A2969 RMK AO2 SLP049 T01720167 58007
KBTL 230816Z AUTO 05006KT 2SM BR OVC002 17/17 A2970 RMK AO2 T01720167
KBTL 230805Z AUTO 05007KT 1 3/4SM BR OVC002 18/17 A2970 RMK AO2 T01780167
KBTL 230753Z AUTO 06005KT 2SM BR OVC002 17/17 A2970 RMK AO2 SLP054 T01720167
KBTL 230743Z AUTO 05005KT 2 1/2SM BR OVC002 18/17 A2970 RMK AO2 T01780167
KBTL 230653Z AUTO 05007KT 4SM BR OVC003 18/17 A2971 RMK AO2 SLP055 T01780167
KBTL 230605Z AUTO 04004KT 10SM OVC004 18/17 A2971 RMK AO2 T01780167
KBTL 230553Z AUTO 04004KT 10SM OVC005 18/17 A2971 RMK AO2 SLP056 60000 T01780167 10194 20178 58008
KBTL 230453Z AUTO 05006KT 10SM OVC005 18/17 A2973 RMK AO2 CIG 004V008 SLP064 T01780167 402110144
KBTL 230353Z AUTO 07006KT 10SM OVC007 18/17 A2973 RMK AO2 SLP064 T01780167
KBTL 230306Z AUTO 06006KT 10SM BKN008 OVC012 18/17 A2974 RMK AO2 T01780167
KBTL 230253Z AUTO 06008KT 10SM SCT007 BKN014 OVC019 18/17 A2974 RMK AO2 RAE33 SLP066 P0000 60000 T01780167 53000
KBTL 230233Z AUTO 06009KT 9SM FEW008 OVC017 18/17 A2974 RMK AO2 RAE33 P0000 T01780167
KBTL 230205Z AUTO 08009KT 4SM -RA BR BKN008 OVC034 18/17 A2974 RMK AO2 CIG 005V013 P0000 T01780167
KBTL 230153Z 08007KT 6SM -RA BR BKN010 BKN022 OVC034 18/17 A2973 RMK AO2 RAB21 CIG 007V017 SLP066 P0000 T01830167
KBTL 230125Z 08010KT 7SM -RA BKN014 OVC019 19/17 A2973 RMK AO2 RAB21 P0000 T01890167
KBTL 230101Z 06008KT 10SM SCT013 BKN020 OVC025 19/17 A2973 RMK AO2 T01890167
KBTL 230053Z 05009KT 10SM BKN013 OVC021 19/17 A2973 RMK AO2 SLP065 T01890167
KBTL 230050Z 06009KT 10SM BKN013 OVC021 19/17 A2973 RMK AO2
KBTL 222353Z 07007KT 10SM BKN016 OVC022 19/17 A2974 RMK AO2 SLP066 60006 T01940167 10211 20183 56007
KBTL 222308Z 06007KT 10SM FEW014 BKN025 OVC030 19/17 A2974 RMK AO2 T01940167
KBTL 222253Z 07008KT 10SM SCT014 OVC032 19/17 A2974 RMK AO2 RAE2156 SLP067 P0000 T01940167
KBTL 222229Z 06008KT 10SM SCT014 OVC030 19/17 A2974 RMK AO2 RAE2156 P0000 T01940172
KBTL 222153Z 05009KT 7SM -RA BKN023 OVC029 19/17 A2974 RMK AO2 RAE2055B36 SLP069 P0000 T01940167
KBTL 222129Z 06009KT 7SM BKN025 BKN039 OVC050 20/17 A2976 RMK AO2 RAE2055 P0000 T02000167
KBTL 222121Z 06007KT 7SM SCT027 BKN040 OVC050 20/17 A2976 RMK AO2 RAE2055 P0000 T02000167
KBTL 222053Z 05009KT 10SM -RA BKN028 OVC050 20/17 A2976 RMK AO2 RAE18B38 SLP074 P0004 60006 T02000167 58003
KBTL 222013Z 05008KT 7SM -RA BKN030 BKN038 OVC047 18/17 A2977 RMK AO2 P0004 T01830167
KBTL 222004Z 05007KT 2SM R23R/5000VP6000FT RA BR BKN030 OVC038 18/16 A2977 RMK AO2 P0003 T01830161
KBTL 221953Z 07013G19KT 7SM -RA BKN033 OVC041 19/16 A2977 RMK AO2 RAB10 SLP078 P0002 T01940156
KBTL 221853Z 07011KT 10SM FEW028 OVC055 21/15 A2977 RMK AO2 SLP075 T02060150
KBTL 221846Z 07011KT 10SM SCT028 OVC055 21/15 A2976 RMK AO2 T02060150
KBTL 221825Z 08008KT 10SM BKN029 BKN060 OVC080 21/16 A2976 RMK AO2 T02060156
KBTL 221753Z 05011KT 10SM OVC080 21/16 A2977 RMK AO2 RAE25 SLP075 P0001 60002 T02060156 10206 20144 58013 $
KBTL 221653Z 05008KT 10SM -RA OVC085 19/14 A2978 RMK AO2 RAB12 SLP080 P0000 T01890144 $
KBTL 221553Z 02007KT 10SM BKN100 18/14 A2980 RMK AO2 RAE49 SLP088 P0001 T01780139 $
KBTL 221453Z 04007KT 10SM -RA FEW047 OVC095 17/12 A2980 RMK AO2 RAB43 SLP089 P0000 60000 T01720122 58003 $
KBTL 221353Z 04004KT 10SM OVC090 17/12 A2982 RMK AO2 RAB1257E31 SLP092 P0000 T01670122 $
KBTL 221253Z VRB04KT 10SM OVC070 16/12 A2982 RMK AO2 RAE02 SLP094 P0000 T01560117 $
KBTL 221153Z 05007KT 5SM R23R/6000VP6000FT -RA FEW047 BKN070 OVC095 14/12 A2981 RMK AO2 RAB24 SLP092 P0009 60009 70009 T01440117 10189 20144 53003 $
KBTL 221144Z 04009KT 1 3/4SM R23R/4000VP6000FT +RA FEW026 BKN075 OVC095 15/11 A2981 RMK AO2 RAB24 P0007 T01500111 $
KBTL 221053Z 05008KT 10SM SCT049 OVC090 17/09 A2981 RMK AO2 SLP089 T01670094 $
KBTL 220953Z 05009KT 10SM OVC100 17/09 A2981 RMK AO2 RAB0858E07 SLP088 P0000 T01670094 $
KBTL 220853Z AUTO 04009KT 10SM BKN090 OVC110 17/10 A2981 RMK AO2 SLP088 T01670100 56009 $
KBTL 220753Z AUTO 05008KT 10SM FEW080 OVC110 18/11 A2981 RMK AO2 SLP090 T01780111 $
KBTL 220653Z AUTO 05009KT 10SM OVC075 18/13 A2982 RMK AO2 SLP092 T01830128 $
KBTL 220553Z AUTO 05010KT 10SM BKN080 BKN120 19/13 A2983 RMK AO2 SLP097 60000 T01890133 10228 20189 58001 $
KBTL 220453Z AUTO 06007KT 10SM OVC070 19/13 A2984 RMK AO2 SLP100 T01940133 402390156 $
KBTL 220353Z AUTO 06009KT 10SM BKN110 19/14 A2984 RMK AO2 RAB02E14 SLP098 P0000 T01940139 $
KBTL 220253Z AUTO 06009KT 10SM BKN110 21/16 A2983 RMK AO2 RAE0157 SLP097 P0000 60000 T02060156 53002 $
KBTL 220153Z 05007KT 10SM -RA FEW120 21/15 A2983 RMK AO2 RAB38 SLP097 P0000 T02060150 $
KBTL 220053Z 10006KT 10SM BKN110 22/14 A2983 RMK AO2 SLP096 T02220139 $